createdAt,value
2019-05-18T00:01:23.494Z,98213.95
2019-05-18T00:03:49.569Z,98220.77
2019-05-18T00:06:15.729Z,98218.12
2019-05-18T00:08:41.982Z,98218.27
2019-05-18T00:11:08.124Z,98223.55
2019-05-18T00:13:34.296Z,98218.12
2019-05-18T00:16:00.816Z,98220.00
2019-05-18T00:18:26.831Z,98221.26
2019-05-18T00:20:52.937Z,98214.66
2019-05-18T00:23:19.947Z,98221.19
2019-05-18T00:25:46.100Z,98215.36
2019-05-18T00:28:12.278Z,98212.83
2019-05-18T00:30:38.852Z,98205.13
2019-05-18T00:33:04.978Z,98207.49
2019-05-18T00:35:31.214Z,98212.39
2019-05-18T00:37:57.666Z,98208.72
2019-05-18T00:40:24.438Z,98202.77
2019-05-18T00:42:50.639Z,98200.98
2019-05-18T00:45:17.933Z,98210.28
2019-05-18T00:47:43.980Z,98209.23
2019-05-18T00:50:11.175Z,98229.01
2019-05-18T00:52:37.654Z,98211.96
2019-05-18T00:55:06.305Z,98213.06
2019-05-18T00:57:32.430Z,98212.78
2019-05-18T00:59:58.811Z,98202.52
2019-05-18T01:02:25.332Z,98195.05
2019-05-18T01:04:53.727Z,98202.95
2019-05-18T01:07:20.306Z,98203.01
2019-05-18T01:09:46.453Z,98203.37
2019-05-18T01:12:12.626Z,98197.41
2019-05-18T01:14:38.874Z,98190.05
2019-05-18T01:17:05.049Z,98194.44
2019-05-18T01:19:31.386Z,98218.74
2019-05-18T01:21:57.981Z,98203.21
2019-05-18T01:24:24.138Z,98205.73
2019-05-18T01:26:50.177Z,98187.63
2019-05-18T01:29:16.242Z,98195.38
2019-05-18T01:31:42.305Z,98191.30
2019-05-18T01:34:08.435Z,98187.96
2019-05-18T01:36:34.935Z,98189.19
2019-05-18T01:39:01.352Z,98190.29
2019-05-18T01:41:27.529Z,98187.87
2019-05-18T01:43:53.857Z,98181.16
2019-05-18T01:46:19.983Z,98185.51
2019-05-18T01:48:46.036Z,98184.81
2019-05-18T01:51:12.524Z,98178.08
2019-05-18T01:53:40.440Z,98181.05
2019-05-18T01:56:07.983Z,98181.13
2019-05-18T01:58:34.610Z,98185.19
2019-05-18T02:01:00.639Z,98183.74
2019-05-18T02:03:26.691Z,98185.65
2019-05-18T02:05:53.118Z,98186.97
2019-05-18T02:08:19.177Z,98174.55
2019-05-18T02:10:45.444Z,98181.53
2019-05-18T02:13:11.768Z,98176.48
2019-05-18T02:15:38.031Z,98175.70
2019-05-18T02:18:04.183Z,98167.76
2019-05-18T02:20:30.701Z,98181.59
2019-05-18T02:22:56.717Z,98173.62
2019-05-18T02:25:22.885Z,98172.42
2019-05-18T02:27:49.309Z,98177.54
2019-05-18T02:30:17.603Z,98169.72
2019-05-18T02:32:44.051Z,98181.27
2019-05-18T02:35:10.628Z,98176.34
2019-05-18T02:37:36.763Z,98174.22
2019-05-18T02:40:05.048Z,98171.16
2019-05-18T02:42:31.287Z,98167.50
2019-05-18T02:44:57.502Z,98170.88
2019-05-18T02:47:23.549Z,98168.46
2019-05-18T02:49:51.093Z,98159.70
2019-05-18T02:52:17.492Z,98165.24
2019-05-18T02:54:43.821Z,98158.97
2019-05-18T02:57:09.890Z,98160.19
2019-05-18T02:59:36.013Z,98158.38
2019-05-18T03:02:02.450Z,98165.17
2019-05-18T03:04:28.577Z,98158.28
2019-05-18T03:06:54.650Z,98158.92
2019-05-18T03:09:21.163Z,98162.91
2019-05-18T03:11:47.177Z,98167.41
2019-05-18T03:14:13.230Z,98170.50
2019-05-18T03:16:39.617Z,98168.22
2019-05-18T03:19:08.781Z,98174.70
2019-05-18T03:21:34.092Z,98179.34
2019-05-18T03:24:00.660Z,98176.44
2019-05-18T03:26:26.722Z,98173.52
2019-05-18T03:28:52.967Z,98180.59
2019-05-18T03:31:19.299Z,98183.80
2019-05-18T03:33:45.361Z,98179.23
2019-05-18T03:36:11.520Z,98178.33
2019-05-18T03:38:37.935Z,98181.44
2019-05-18T03:41:04.076Z,98180.53
2019-05-18T03:43:30.078Z,98185.91
2019-05-18T03:45:56.554Z,98184.09
2019-05-18T03:48:22.678Z,98131.58
2019-05-18T03:50:48.884Z,98186.56
2019-05-18T03:53:18.128Z,98181.03
2019-05-18T03:55:43.352Z,98188.11
2019-05-18T03:58:09.392Z,98192.26
2019-05-18T04:00:35.797Z,98194.86
2019-05-18T04:03:02.218Z,98198.23
2019-05-18T04:05:28.531Z,97938.64
2019-05-18T04:07:54.912Z,98192.88
2019-05-18T04:10:23.040Z,98193.77
2019-05-18T04:12:49.090Z,98193.91
2019-05-18T04:15:15.573Z,98193.72
2019-05-18T04:17:41.684Z,98191.25
2019-05-18T04:20:07.809Z,98194.31
2019-05-18T04:22:34.270Z,98189.69
2019-05-18T04:25:00.308Z,98184.44
2019-05-18T04:27:26.610Z,98186.25
2019-05-18T04:29:53.045Z,98176.86
2019-05-18T04:32:19.216Z,98176.38
2019-05-18T04:34:45.397Z,98181.27
2019-05-18T04:37:11.600Z,98193.27
2019-05-18T04:39:38.046Z,98190.77
2019-05-18T04:42:04.099Z,98193.83
2019-05-18T04:44:30.777Z,98197.02
2019-05-18T04:46:57.123Z,98199.47
2019-05-18T04:49:23.360Z,98200.66
2019-05-18T04:51:49.994Z,98196.45
2019-05-18T04:54:16.270Z,98191.34
2019-05-18T04:56:43.134Z,98191.44
2019-05-18T04:59:10.229Z,98196.91
2019-05-18T05:01:38.425Z,98197.63
2019-05-18T05:04:04.535Z,97950.34
2019-05-18T05:06:31.058Z,98193.51
2019-05-18T05:08:57.299Z,98192.34
2019-05-18T05:11:23.367Z,98201.52
2019-05-18T05:13:49.786Z,98203.73
2019-05-18T05:16:16.082Z,98192.11
2019-05-18T05:18:42.290Z,98191.59
2019-05-18T05:21:08.813Z,98191.64
2019-05-18T05:23:34.990Z,98206.97
2019-05-18T05:26:01.277Z,98184.25
2019-05-18T05:28:27.903Z,98201.57
2019-05-18T05:30:54.213Z,98185.19
2019-05-18T05:33:20.234Z,98183.40
2019-05-18T05:35:46.725Z,98175.16
2019-05-18T05:38:12.998Z,98180.30
2019-05-18T05:40:39.184Z,98184.50
2019-05-18T05:43:05.645Z,98192.56
2019-05-18T05:45:31.764Z,98194.89
2019-05-18T05:47:57.805Z,98184.77
2019-05-18T05:50:35.283Z,98187.00
2019-05-18T05:52:52.283Z,98186.70
2019-05-18T05:55:18.982Z,98192.78
2019-05-18T05:57:45.428Z,98180.48
2019-05-18T06:00:11.958Z,98180.22
2019-05-18T06:02:38.013Z,98174.98
2019-05-18T06:05:05.135Z,98183.62
2019-05-18T06:07:31.273Z,98178.28
2019-05-18T06:09:58.053Z,98178.59
2019-05-18T06:12:24.331Z,98136.41
2019-05-18T06:14:50.514Z,97964.86
2019-05-18T06:17:17.109Z,98184.78
2019-05-18T06:19:43.409Z,98191.67
2019-05-18T06:22:09.832Z,98179.24
2019-05-18T06:24:36.213Z,98180.23
2019-05-18T06:27:03.136Z,98184.27
2019-05-18T06:29:29.202Z,98183.46
2019-05-18T06:31:55.933Z,98193.77
2019-05-18T06:34:22.292Z,98192.56
2019-05-18T06:36:48.412Z,98191.98
2019-05-18T06:39:15.013Z,98194.52
2019-05-18T06:41:41.604Z,98182.15
2019-05-18T06:44:07.951Z,97973.80
2019-05-18T06:46:34.712Z,98191.06
2019-05-18T06:49:01.097Z,98188.83
2019-05-18T06:51:27.459Z,98187.06
2019-05-18T06:53:53.483Z,98191.62
2019-05-18T06:56:20.138Z,98182.75
2019-05-18T06:58:46.531Z,98185.55
2019-05-18T07:01:12.880Z,97968.30
2019-05-18T07:03:39.184Z,98188.22
2019-05-18T07:06:05.339Z,98183.80
2019-05-18T07:08:31.527Z,98189.25
2019-05-18T07:10:57.607Z,98181.08
2019-05-18T07:13:23.986Z,98184.07
2019-05-18T07:15:50.628Z,98188.75
2019-05-18T07:18:16.956Z,98181.23
2019-05-18T07:20:43.092Z,98194.71
2019-05-18T07:23:09.626Z,98174.91
2019-05-18T07:25:36.465Z,98168.59
2019-05-18T07:28:02.915Z,98166.64
2019-05-18T07:30:29.263Z,98167.25
2019-05-18T07:32:55.325Z,98162.27
2019-05-18T07:35:21.828Z,98159.55
2019-05-18T07:37:48.432Z,97954.36
2019-05-18T07:40:14.888Z,98152.53
2019-05-18T07:42:41.078Z,98148.44
2019-05-18T07:45:07.635Z,98144.25
2019-05-18T07:47:33.946Z,98139.84
2019-05-18T07:50:00.171Z,98137.72
2019-05-18T07:52:26.726Z,97937.20
2019-05-18T07:54:53.066Z,98141.75
2019-05-18T07:57:19.206Z,98135.73
2019-05-18T07:59:45.823Z,98146.35
2019-05-18T08:02:12.141Z,98148.73
2019-05-18T08:04:39.868Z,98142.89
2019-05-18T08:07:06.724Z,98153.77
2019-05-18T08:09:32.948Z,98149.78
2019-05-18T08:11:59.109Z,98147.71
2019-05-18T08:14:25.485Z,98148.88
2019-05-18T08:16:52.121Z,98146.88
2019-05-18T08:19:18.491Z,97975.70
2019-05-18T08:21:53.406Z,98151.71
2019-05-18T08:24:13.198Z,98149.87
2019-05-18T08:26:39.498Z,98147.00
2019-05-18T08:29:05.683Z,98135.52
2019-05-18T08:31:32.122Z,98136.52
2019-05-18T08:33:58.456Z,98142.16
2019-05-18T08:36:29.206Z,98148.30
2019-05-18T08:38:57.250Z,98146.67
2019-05-18T08:41:23.779Z,98142.94
2019-05-18T08:43:50.250Z,98141.25
2019-05-18T08:46:16.640Z,98129.30
2019-05-18T08:48:42.896Z,98132.09
2019-05-18T08:51:09.339Z,98131.41
2019-05-18T08:53:35.958Z,98132.46
2019-05-18T08:56:03.241Z,98135.27
2019-05-18T08:58:29.367Z,98128.73
2019-05-18T09:00:55.555Z,98129.34
2019-05-18T09:03:22.004Z,98127.98
2019-05-18T09:05:48.444Z,98139.05
2019-05-18T09:08:15.218Z,98128.98
2019-05-18T09:10:41.904Z,97989.59
2019-05-18T09:13:08.075Z,98132.61
2019-05-18T09:15:34.551Z,98128.77
2019-05-18T09:18:00.982Z,98125.98
2019-05-18T09:20:27.110Z,98134.98
2019-05-18T09:22:53.643Z,98134.47
2019-05-18T09:25:20.491Z,98129.64
2019-05-18T09:27:46.749Z,98136.41
2019-05-18T09:30:13.212Z,98133.54
2019-05-18T09:32:39.714Z,98139.45
2019-05-18T09:35:07.151Z,97989.44
2019-05-18T09:37:33.506Z,98135.89
2019-05-18T09:39:59.545Z,98135.20
2019-05-18T09:42:25.667Z,98096.89
2019-05-18T09:44:51.755Z,98132.19
2019-05-18T09:47:18.239Z,98129.94
2019-05-18T09:49:44.604Z,98125.44
2019-05-18T09:52:10.678Z,98128.97
2019-05-18T09:54:39.223Z,98127.20
2019-05-18T09:57:05.417Z,98055.20
2019-05-18T09:59:31.531Z,98125.31
2019-05-18T10:01:58.192Z,98129.53
2019-05-18T10:04:24.472Z,98133.28
2019-05-18T10:06:50.677Z,98130.05
2019-05-18T10:09:17.290Z,98130.05
2019-05-18T10:11:43.459Z,98124.25
2019-05-18T10:14:09.667Z,98122.44
2019-05-18T10:16:36.383Z,98122.30
2019-05-18T10:19:03.464Z,98113.83
2019-05-18T10:21:29.866Z,98107.74
2019-05-18T10:23:57.558Z,98121.14
2019-05-18T10:26:23.966Z,98143.44
2019-05-18T10:28:50.267Z,98115.02
2019-05-18T10:31:17.266Z,98117.58
2019-05-18T10:33:43.602Z,98110.31
2019-05-18T10:36:11.807Z,98111.66
2019-05-18T10:38:38.455Z,98117.11
2019-05-18T10:41:04.691Z,98110.09
2019-05-18T10:43:31.245Z,98115.47
2019-05-18T10:46:00.419Z,98118.28
2019-05-18T10:48:26.899Z,98099.25
2019-05-18T10:50:53.233Z,98106.83
2019-05-18T10:53:28.264Z,98104.18
2019-05-18T10:55:47.947Z,98100.14
2019-05-18T10:58:14.221Z,98096.81
2019-05-18T11:00:40.816Z,98110.32
2019-05-18T11:03:08.268Z,98091.59
2019-05-18T11:05:34.827Z,98103.53
2019-05-18T11:08:02.260Z,98088.91
2019-05-18T11:10:28.793Z,98096.03
2019-05-18T11:12:58.266Z,98103.61
2019-05-18T11:15:28.631Z,98093.70
2019-05-18T11:17:56.343Z,98101.04
2019-05-18T11:20:25.900Z,98092.93
2019-05-18T11:22:53.937Z,98001.78
2019-05-18T11:25:21.346Z,98093.03
2019-05-18T11:27:47.651Z,98094.84
2019-05-18T11:30:14.203Z,98089.61
2019-05-18T11:32:41.695Z,98093.89
2019-05-18T11:35:08.740Z,98096.86
2019-05-18T11:37:35.491Z,98096.02
2019-05-18T11:40:05.438Z,97950.36
2019-05-18T11:42:31.834Z,98088.13
2019-05-18T11:44:58.171Z,97941.18
2019-05-18T11:47:24.801Z,98081.70
2019-05-18T11:49:51.281Z,98075.71
2019-05-18T11:52:18.222Z,98079.22
2019-05-18T11:54:47.074Z,98083.22
2019-05-18T11:57:14.276Z,98071.55
2019-05-18T11:59:40.762Z,98082.20
2019-05-18T12:02:06.890Z,98069.55
2019-05-18T12:04:33.722Z,97920.23
2019-05-18T12:07:07.229Z,98074.11
2019-05-18T12:09:33.881Z,97942.16
2019-05-18T12:12:00.198Z,98070.45
2019-05-18T12:14:26.549Z,98061.84
2019-05-18T12:16:52.581Z,98064.94
2019-05-18T12:19:18.812Z,98069.62
2019-05-18T12:21:46.050Z,98057.08
2019-05-18T12:24:15.196Z,97909.45
2019-05-18T12:26:40.505Z,98061.73
2019-05-18T12:29:07.500Z,98059.23
2019-05-18T12:31:33.774Z,98060.57
2019-05-18T12:34:00.459Z,98049.37
2019-05-18T12:36:27.379Z,97841.91
2019-05-18T12:38:53.537Z,98054.44
2019-05-18T12:41:21.868Z,98046.48
2019-05-18T12:43:48.337Z,98048.10
2019-05-18T12:46:14.497Z,98047.95
2019-05-18T12:48:40.732Z,98042.46
2019-05-18T12:51:07.022Z,98045.44
2019-05-18T12:53:33.343Z,98039.70
2019-05-18T12:55:59.724Z,98041.90
2019-05-18T12:58:26.060Z,98046.75
2019-05-18T13:00:52.122Z,98040.94
2019-05-18T13:03:18.366Z,98043.95
2019-05-18T13:05:44.755Z,98035.60
2019-05-18T13:08:10.947Z,98039.79
2019-05-18T13:10:37.394Z,98040.20
2019-05-18T13:13:04.148Z,97891.97
2019-05-18T13:15:30.660Z,98033.33
2019-05-18T13:17:57.105Z,98043.64
2019-05-18T13:20:23.344Z,98040.27
2019-05-18T13:22:49.689Z,98038.49
2019-05-18T13:25:17.178Z,98027.16
2019-05-18T13:27:43.598Z,98025.05
2019-05-18T13:30:11.841Z,98023.81
2019-05-18T13:32:38.204Z,98019.20
2019-05-18T13:35:06.472Z,98019.34
2019-05-18T13:37:32.522Z,98021.69
2019-05-18T13:39:58.711Z,98019.02
2019-05-18T13:42:25.261Z,98023.22
2019-05-18T13:44:51.578Z,98019.70
2019-05-18T13:47:17.915Z,98023.91
2019-05-18T13:49:44.387Z,98017.69
2019-05-18T13:52:10.854Z,98019.90
2019-05-18T13:54:37.016Z,98018.19
2019-05-18T13:57:03.432Z,98015.16
2019-05-18T13:59:29.464Z,98013.92
2019-05-18T14:01:55.546Z,98013.42
2019-05-18T14:04:22.142Z,98010.92
2019-05-18T14:06:48.368Z,98002.15
2019-05-18T14:09:14.629Z,98013.95
2019-05-18T14:11:40.816Z,98017.14
2019-05-18T14:14:07.837Z,98017.64
2019-05-18T14:16:34.355Z,98017.66
2019-05-18T14:19:01.021Z,98006.77
2019-05-18T14:21:28.675Z,98016.67
2019-05-18T14:23:54.871Z,98010.55
2019-05-18T14:26:21.253Z,98012.11
2019-05-18T14:28:47.935Z,98013.13
2019-05-18T14:31:14.265Z,98012.74
2019-05-18T14:33:41.128Z,98005.83
2019-05-18T14:36:07.416Z,98007.98
2019-05-18T14:38:33.617Z,98009.08
2019-05-18T14:40:59.888Z,98012.18
2019-05-18T14:43:26.271Z,98014.98
2019-05-18T14:45:52.483Z,98014.03
2019-05-18T14:48:18.747Z,98008.15
2019-05-18T14:50:45.018Z,98002.77
2019-05-18T14:53:11.677Z,98006.21
2019-05-18T14:55:38.051Z,97999.88
2019-05-18T14:58:04.511Z,98002.50
2019-05-18T15:00:30.984Z,98002.31
2019-05-18T15:02:57.173Z,98002.53
2019-05-18T15:05:23.683Z,97998.83
2019-05-18T15:07:51.276Z,97995.42
2019-05-18T15:10:17.514Z,97995.20
2019-05-18T15:12:44.119Z,97991.06
2019-05-18T15:15:10.679Z,97987.75
2019-05-18T15:17:36.881Z,97992.62
2019-05-18T15:20:06.798Z,97995.68
2019-05-18T15:22:32.838Z,97991.89
2019-05-18T15:24:59.082Z,97992.94
2019-05-18T15:27:26.753Z,98002.70
2019-05-18T15:29:53.059Z,97989.67
2019-05-18T15:32:19.087Z,97987.97
2019-05-18T15:34:45.613Z,97993.95
2019-05-18T15:37:11.693Z,97990.41
2019-05-18T15:39:37.836Z,97992.49
2019-05-18T15:42:04.185Z,97987.47
2019-05-18T15:44:30.573Z,97985.30
2019-05-18T15:46:56.727Z,97992.03
2019-05-18T15:49:23.191Z,97984.70
2019-05-18T15:51:49.417Z,97981.77
2019-05-18T15:54:16.033Z,97980.84
2019-05-18T15:56:44.241Z,97977.41
2019-05-18T15:59:11.300Z,97979.38
2019-05-18T16:01:37.817Z,97982.72
2019-05-18T16:04:06.565Z,97974.09
2019-05-18T16:06:32.543Z,97981.16
2019-05-18T16:08:58.695Z,97978.63
2019-05-18T16:11:25.092Z,97984.09
2019-05-18T16:13:51.361Z,97979.01
2019-05-18T16:16:17.537Z,97975.08
2019-05-18T16:18:43.911Z,97978.55
2019-05-18T16:21:10.383Z,97973.31
2019-05-18T16:23:37.001Z,97969.59
2019-05-18T16:26:03.075Z,97944.77
2019-05-18T16:28:29.267Z,97830.52
2019-05-18T16:30:55.686Z,97980.34
2019-05-18T16:33:21.878Z,97978.83
2019-05-18T16:35:47.983Z,97982.60
2019-05-18T16:38:14.509Z,97984.47
2019-05-18T16:40:40.682Z,97982.12
2019-05-18T16:43:07.672Z,97979.97
2019-05-18T16:45:34.113Z,97971.94
2019-05-18T16:48:00.344Z,97986.25
2019-05-18T16:50:26.510Z,97983.46
2019-05-18T16:52:52.976Z,97985.28
2019-05-18T16:55:19.240Z,97988.61
2019-05-18T16:57:45.479Z,97987.67
2019-05-18T17:00:15.965Z,97984.47
2019-05-18T17:02:41.580Z,97977.14
2019-05-18T17:05:08.225Z,97975.96
2019-05-18T17:07:34.412Z,97983.98
2019-05-18T17:10:00.708Z,97977.70
2019-05-18T17:12:27.047Z,97982.34
2019-05-18T17:14:53.453Z,97981.89
2019-05-18T17:17:20.068Z,97984.51
2019-05-18T17:19:46.229Z,97981.84
2019-05-18T17:22:12.890Z,97979.16
2019-05-18T17:24:39.097Z,97979.47
2019-05-18T17:27:05.386Z,97991.92
2019-05-18T17:29:32.069Z,97990.04
2019-05-18T17:31:58.193Z,97990.78
2019-05-18T17:34:24.168Z,98001.77
2019-05-18T17:36:52.549Z,98004.93
2019-05-18T17:39:18.276Z,98002.02
2019-05-18T17:41:44.458Z,98006.20
2019-05-18T17:44:11.118Z,98006.86
2019-05-18T17:46:37.253Z,98006.86
2019-05-18T17:49:03.545Z,98006.22
2019-05-18T17:51:29.984Z,98004.25
2019-05-18T17:53:56.123Z,98003.44
2019-05-18T17:56:22.451Z,98002.28
2019-05-18T17:58:49.005Z,98003.10
2019-05-18T18:01:15.294Z,98008.10
2019-05-18T18:03:41.427Z,97997.61
2019-05-18T18:06:08.204Z,97996.79
2019-05-18T18:08:34.240Z,97998.88
2019-05-18T18:11:00.452Z,98001.52
2019-05-18T18:13:27.033Z,97997.61
2019-05-18T18:15:53.662Z,98009.48
2019-05-18T18:18:21.086Z,98014.46
2019-05-18T18:20:47.640Z,98010.77
2019-05-18T18:23:14.245Z,98011.99
2019-05-18T18:25:40.592Z,98005.46
2019-05-18T18:28:06.813Z,98005.42
2019-05-18T18:30:32.946Z,98015.06
2019-05-18T18:32:59.408Z,98021.35
2019-05-18T18:35:26.141Z,98031.45
2019-05-18T18:37:53.427Z,98019.33
2019-05-18T18:40:22.774Z,98024.20
2019-05-18T18:42:49.159Z,98019.32
2019-05-18T18:45:16.564Z,98020.98
2019-05-18T18:47:48.379Z,98032.52
2019-05-18T18:50:17.888Z,98036.00
2019-05-18T18:52:48.962Z,98031.12
2019-05-18T18:55:15.265Z,98027.64
2019-05-18T18:57:43.620Z,98032.94
2019-05-18T19:00:11.180Z,98041.33
2019-05-18T19:02:40.416Z,98037.77
2019-05-18T19:05:08.009Z,98044.08
2019-05-18T19:07:34.841Z,98048.86
2019-05-18T19:10:04.892Z,98051.86
2019-05-18T19:12:38.088Z,98061.19
2019-05-18T19:15:07.718Z,98061.27
2019-05-18T19:17:34.119Z,98070.67
2019-05-18T19:20:00.382Z,98074.12
2019-05-18T19:22:26.922Z,98070.63
2019-05-18T19:24:55.890Z,98075.58
2019-05-18T19:27:22.783Z,98070.02
2019-05-18T19:29:49.050Z,98073.04
2019-05-18T19:32:17.687Z,98076.38
2019-05-18T19:34:44.177Z,98077.87
2019-05-18T19:37:10.490Z,98080.11
2019-05-18T19:39:37.539Z,98078.09
2019-05-18T19:42:05.159Z,98073.86
2019-05-18T19:44:33.791Z,98076.19
2019-05-18T19:47:04.104Z,98083.09
2019-05-18T19:49:32.758Z,98077.97
2019-05-18T19:52:00.376Z,98077.80
2019-05-18T19:54:27.216Z,98079.17
2019-05-18T19:56:54.609Z,98080.23
2019-05-18T19:59:22.518Z,98084.30
2019-05-18T20:01:49.102Z,98086.02
2019-05-18T20:04:17.325Z,98085.10
2019-05-18T20:06:43.756Z,98074.75
2019-05-18T20:09:10.314Z,98087.66
2019-05-18T20:11:36.785Z,98095.59
2019-05-18T20:14:03.235Z,98095.55
2019-05-18T20:16:30.000Z,98084.34
2019-05-18T20:18:56.285Z,98087.07
2019-05-18T20:21:22.831Z,98077.23
2019-05-18T20:23:49.338Z,98089.16
2019-05-18T20:26:17.468Z,98087.70
2019-05-18T20:28:43.865Z,98084.80
2019-05-18T20:31:10.682Z,98095.22
2019-05-18T20:33:37.185Z,98090.81
2019-05-18T20:36:03.895Z,98089.67
2019-05-18T20:38:31.231Z,98086.45
2019-05-18T20:40:58.341Z,98085.63
2019-05-18T20:43:24.628Z,98091.90
2019-05-18T20:45:50.987Z,98084.16
2019-05-18T20:48:17.210Z,98083.83
2019-05-18T20:50:43.699Z,98082.00
2019-05-18T20:53:10.278Z,98086.86
2019-05-18T20:55:36.965Z,98080.62
2019-05-18T20:58:03.383Z,98081.14
2019-05-18T21:00:29.927Z,98088.16
2019-05-18T21:02:56.099Z,98082.00
2019-05-18T21:05:22.282Z,98076.52
2019-05-18T21:07:48.778Z,98098.08
2019-05-18T21:10:15.145Z,98082.77
2019-05-18T21:12:41.356Z,98075.95
2019-05-18T21:15:08.052Z,98085.22
2019-05-18T21:17:34.228Z,98079.20
2019-05-18T21:20:00.571Z,98078.75
2019-05-18T21:22:26.759Z,98082.41
2019-05-18T21:24:53.213Z,98083.26
2019-05-18T21:27:19.570Z,97889.37
2019-05-18T21:29:45.760Z,98082.47
2019-05-18T21:32:12.183Z,98077.61
2019-05-18T21:34:38.474Z,98081.78
2019-05-18T21:37:04.629Z,98090.27
2019-05-18T21:39:30.892Z,98082.06
2019-05-18T21:41:57.263Z,98085.08
2019-05-18T21:44:23.487Z,98071.48
2019-05-18T21:46:49.842Z,98076.12
2019-05-18T21:49:16.099Z,98081.70
2019-05-18T21:51:42.483Z,98069.80
2019-05-18T21:54:09.291Z,98058.17
2019-05-18T21:56:35.538Z,98073.02
2019-05-18T21:59:11.122Z,98076.12
2019-05-18T22:01:30.345Z,98070.72
2019-05-18T22:03:58.212Z,98060.23
2019-05-18T22:06:24.317Z,98065.27
2019-05-18T22:08:50.786Z,98021.08
2019-05-18T22:11:17.131Z,98072.53
2019-05-18T22:13:43.197Z,98065.73
2019-05-18T22:16:09.669Z,98071.63
2019-05-18T22:18:35.988Z,98063.97
2019-05-18T22:21:02.739Z,98063.09
2019-05-18T22:23:29.271Z,98063.27
2019-05-18T22:25:57.184Z,98061.43
2019-05-18T22:28:23.508Z,98061.72
2019-05-18T22:30:49.953Z,98064.72
2019-05-18T22:33:16.085Z,98062.31
2019-05-18T22:35:42.157Z,98061.22
2019-05-18T22:38:08.624Z,98065.67
2019-05-18T22:40:34.728Z,98063.17
2019-05-18T22:43:00.935Z,98056.67
2019-05-18T22:45:27.029Z,98058.48
2019-05-18T22:47:53.444Z,98050.50
2019-05-18T22:50:19.597Z,98046.06
2019-05-18T22:52:46.173Z,98054.25
2019-05-18T22:55:12.882Z,98047.41
2019-05-18T22:57:39.021Z,98050.00
2019-05-18T23:00:05.888Z,98055.36
2019-05-18T23:02:32.059Z,98048.55
2019-05-18T23:04:58.176Z,98056.58
2019-05-18T23:07:24.854Z,98061.95
2019-05-18T23:09:50.985Z,98059.45
2019-05-18T23:12:17.152Z,98054.15
2019-05-18T23:14:43.309Z,98056.95
2019-05-18T23:17:09.336Z,98053.04
2019-05-18T23:19:35.612Z,98052.70
2019-05-18T23:22:02.063Z,98047.50
2019-05-18T23:24:28.144Z,98045.13
2019-05-18T23:26:54.166Z,98049.60
2019-05-18T23:29:20.609Z,98045.06
2019-05-18T23:31:46.926Z,98045.98
2019-05-18T23:34:13.218Z,98047.03
2019-05-18T23:36:39.669Z,98031.19
2019-05-18T23:39:05.782Z,98033.00
2019-05-18T23:41:31.953Z,98035.56
2019-05-18T23:43:58.334Z,98034.58
2019-05-18T23:46:24.543Z,98031.31
2019-05-18T23:48:50.747Z,98029.56
2019-05-18T23:51:17.102Z,98020.59
2019-05-18T23:53:43.125Z,98015.39
2019-05-18T23:56:09.081Z,98017.22
2019-05-18T23:58:35.333Z,98006.95
